createdAt,value
2018-07-03T00:08:36.680Z,20.1
2018-07-03T00:18:35.907Z,19.9
2018-07-03T00:28:35.137Z,20
2018-07-03T00:38:34.366Z,19.9
2018-07-03T00:48:33.593Z,19.9
2018-07-03T00:58:32.823Z,19.9
2018-07-03T01:08:32.052Z,19.8
2018-07-03T01:18:31.279Z,19.8
2018-07-03T01:28:30.508Z,19.9
2018-07-03T01:38:29.739Z,19.8
2018-07-03T01:48:28.965Z,19.6
2018-07-03T01:58:28.195Z,19.6
2018-07-03T02:08:27.473Z,19.6
2018-07-03T02:18:26.705Z,19.5
2018-07-03T02:28:25.885Z,19.5
2018-07-03T02:38:25.112Z,19.4
2018-07-03T02:48:24.338Z,19.4
2018-07-03T02:58:23.564Z,19.3
2018-07-03T03:08:22.792Z,19.3
2018-07-03T03:18:22.026Z,19.2
2018-07-03T03:28:21.250Z,19.2
2018-07-03T03:38:20.483Z,18.9
2018-07-03T03:48:19.710Z,19
2018-07-03T03:58:18.940Z,19.6
2018-07-03T04:08:18.170Z,20.1
2018-07-03T04:18:17.400Z,20.9
2018-07-03T04:28:16.630Z,21.6
2018-07-03T04:38:15.860Z,22.3
2018-07-03T04:48:15.147Z,22.8
2018-07-03T04:58:14.324Z,23.2
2018-07-03T05:08:13.554Z,23.6
2018-07-03T05:18:12.784Z,24.1
2018-07-03T05:28:12.021Z,24.8
2018-07-03T05:38:11.246Z,25.4
2018-07-03T05:48:10.475Z,25.9
2018-07-03T05:58:09.705Z,26.7
2018-07-03T06:08:08.931Z,27.1
2018-07-03T06:18:08.161Z,27.4
2018-07-03T06:28:07.391Z,28
2018-07-03T06:38:06.620Z,29
2018-07-03T06:48:05.853Z,29.3
2018-07-03T06:58:05.080Z,30.2
2018-07-03T07:08:04.308Z,30.7
2018-07-03T07:18:03.536Z,31.4
2018-07-03T07:28:02.768Z,31.6
2018-07-03T07:38:01.995Z,32.1
2018-07-03T07:48:01.245Z,32.6
2018-07-03T07:58:00.459Z,32.9
2018-07-03T08:07:59.689Z,33
2018-07-03T08:17:58.915Z,33.1
2018-07-03T08:27:58.144Z,33.6
2018-07-03T08:37:57.376Z,33.7
2018-07-03T08:47:56.606Z,33.4
2018-07-03T08:57:55.835Z,33.5
2018-07-03T09:07:55.064Z,33.7
2018-07-03T09:17:54.399Z,34.1
2018-07-03T09:27:53.524Z,36.2
2018-07-03T09:37:52.754Z,35.5
2018-07-03T09:47:51.985Z,33.9
2018-07-03T09:57:51.270Z,34.1
2018-07-03T10:07:50.446Z,33.5
2018-07-03T10:17:49.674Z,33.3
2018-07-03T10:27:48.909Z,33.7
2018-07-03T10:37:48.134Z,34.1
2018-07-03T10:47:47.370Z,33.9
2018-07-03T10:57:46.606Z,33.6
2018-07-03T11:07:45.825Z,33.1
2018-07-03T11:17:45.104Z,33.5
2018-07-03T11:27:44.285Z,33.5
2018-07-03T11:37:43.620Z,33.3
2018-07-03T11:47:42.747Z,33.1
2018-07-03T11:57:41.980Z,33.2
2018-07-03T12:07:41.204Z,33.1
2018-07-03T12:17:40.434Z,32.8
2018-07-03T12:27:39.668Z,32.4
2018-07-03T12:37:38.944Z,32.2
2018-07-03T12:47:38.125Z,32.1
2018-07-03T12:57:37.359Z,32.1
2018-07-03T13:07:36.585Z,31.8
2018-07-03T13:17:35.817Z,31.4
2018-07-03T13:27:35.046Z,31.1
2018-07-03T13:37:34.276Z,30.8
2018-07-03T13:47:33.510Z,30.6
2018-07-03T13:57:32.744Z,30.4
2018-07-03T14:07:31.969Z,30.3
2018-07-03T14:17:31.196Z,30.3
2018-07-03T14:27:30.431Z,30.1
2018-07-03T14:37:29.710Z,30
2018-07-03T14:47:28.897Z,29.9
2018-07-03T14:57:28.121Z,29.9
2018-07-03T15:07:27.349Z,30
2018-07-03T15:17:26.580Z,29.8
2018-07-03T15:27:25.811Z,29.8
2018-07-03T15:37:25.045Z,29.8
2018-07-03T15:47:24.275Z,29.8
2018-07-03T15:57:23.509Z,29.4
2018-07-03T16:07:22.740Z,29
2018-07-03T16:17:21.975Z,28.8
2018-07-03T16:27:21.208Z,28.4
2018-07-03T16:37:20.443Z,28.3
2018-07-03T16:47:19.680Z,28.1
2018-07-03T16:57:18.960Z,27.9
2018-07-03T17:07:18.195Z,27.6
2018-07-03T17:17:17.387Z,27.3
2018-07-03T17:27:16.616Z,26.7
2018-07-03T17:37:15.849Z,26.1
2018-07-03T17:47:15.081Z,25.7
2018-07-03T17:57:14.317Z,25.6
2018-07-03T18:07:13.555Z,25.4
2018-07-03T18:17:12.784Z,25.3
2018-07-03T18:27:12.042Z,25.2
2018-07-03T18:37:11.250Z,25
2018-07-03T18:47:10.487Z,24.9
2018-07-03T18:57:09.718Z,24.8
2018-07-03T19:07:08.954Z,24.6
2018-07-03T19:17:08.189Z,24.4
2018-07-03T19:27:07.428Z,24.3
2018-07-03T19:37:06.659Z,24.1
2018-07-03T19:47:05.902Z,24.1
2018-07-03T19:57:05.124Z,23.9
2018-07-03T20:07:04.363Z,23.8
2018-07-03T20:17:03.597Z,23.8
2018-07-03T20:27:02.834Z,23.6
2018-07-03T20:37:02.060Z,23.5
2018-07-03T20:47:01.296Z,23.4
2018-07-03T20:57:00.636Z,23.4
2018-07-03T21:06:59.762Z,23.3
2018-07-03T21:16:59.077Z,23.2
2018-07-03T21:26:58.230Z,23.1
2018-07-03T21:36:57.466Z,23
2018-07-03T21:46:56.696Z,22.9
2018-07-03T21:56:55.936Z,22.8
2018-07-03T22:06:55.164Z,22.7
2018-07-03T22:16:54.400Z,22.6
2018-07-03T22:26:53.630Z,22.6
2018-07-03T22:36:52.864Z,22.4
2018-07-03T22:46:52.146Z,22.4
2018-07-03T22:56:51.329Z,22.3
2018-07-03T23:06:50.562Z,22.3
2018-07-03T23:16:49.796Z,22.2
2018-07-03T23:26:49.029Z,22.1
2018-07-03T23:36:48.262Z,21.9
2018-07-03T23:46:47.540Z,21.8
2018-07-03T23:56:46.746Z,21.8
